Terminal Aerodrome Forecast
Issued by NWS

Home | Current Version | Previous Version | Text Only | Print | Product List | Glossary On
Versions: 1 2 3 4 5 6 7 8 9 10 11 12 13 14 15 16 17 18 19 20 21 22 23 24 25 26 27 28 29 30 31 32 33
000
FTUS44 KHGX 220441 AAC
TAFSGR
TAF AMD
KSGR 220441Z 2205/2224 18010KT 6SM BR VCTS SCT008 OVC012CB
      TEMPO 2205/2208 VRB15G25KT 4SM TSRA
     FM220900 24007KT 6SM BR VCTS BKN015 BKN025CB
     FM221100 28008KT P6SM SCT020 BKN035
     FM221600 32015G23KT P6SM SCT250=

USA.gov is the U.S. government's official web portal to all federal, state and local government web resources and services.